sensor_id;sensor_type;location;lat;lon;timestamp;temperature;humidity
10512;DHT22;5304;48.604;2.096;2023-02-15T00:00:46;2.20;99.90
10512;DHT22;5304;48.604;2.096;2023-02-15T00:03:31;2.30;99.90
10512;DHT22;5304;48.604;2.096;2023-02-15T00:06:16;2.20;99.90
10512;DHT22;5304;48.604;2.096;2023-02-15T00:09:01;2.10;99.90
10512;DHT22;5304;48.604;2.096;2023-02-15T00:11:45;2.10;99.90
10512;DHT22;5304;48.604;2.096;2023-02-15T00:14:36;2.00;99.90
10512;DHT22;5304;48.604;2.096;2023-02-15T00:17:21;2.00;99.90
10512;DHT22;5304;48.604;2.096;2023-02-15T00:20:06;2.10;99.90
10512;DHT22;5304;48.604;2.096;2023-02-15T00:22:50;1.90;99.90
10512;DHT22;5304;48.604;2.096;2023-02-15T00:25:35;1.80;99.90
10512;DHT22;5304;48.604;2.096;2023-02-15T00:28:19;1.80;99.90
10512;DHT22;5304;48.604;2.096;2023-02-15T00:31:08;1.70;99.90
10512;DHT22;5304;48.604;2.096;2023-02-15T00:33:53;1.60;99.90
10512;DHT22;5304;48.604;2.096;2023-02-15T00:36:37;1.60;99.90
10512;DHT22;5304;48.604;2.096;2023-02-15T00:39:22;1.60;99.90
10512;DHT22;5304;48.604;2.096;2023-02-15T00:42:07;1.60;99.90
10512;DHT22;5304;48.604;2.096;2023-02-15T00:44:52;1.60;99.90
10512;DHT22;5304;48.604;2.096;2023-02-15T00:47:36;1.70;99.90
10512;DHT22;5304;48.604;2.096;2023-02-15T00:50:21;1.70;99.90
10512;DHT22;5304;48.604;2.096;2023-02-15T00:53:06;1.60;99.90
10512;DHT22;5304;48.604;2.096;2023-02-15T00:55:50;1.60;99.90
10512;DHT22;5304;48.604;2.096;2023-02-15T00:58:34;1.70;99.90
10512;DHT22;5304;48.604;2.096;2023-02-15T01:01:20;1.60;99.90
10512;DHT22;5304;48.604;2.096;2023-02-15T01:04:05;1.50;99.90
10512;DHT22;5304;48.604;2.096;2023-02-15T01:06:49;1.50;99.90
10512;DHT22;5304;48.604;2.096;2023-02-15T01:09:34;1.50;99.90
10512;DHT22;5304;48.604;2.096;2023-02-15T01:12:18;1.50;99.90
10512;DHT22;5304;48.604;2.096;2023-02-15T01:15:03;1.60;99.90
10512;DHT22;5304;48.604;2.096;2023-02-15T01:17:47;1.40;99.90
10512;DHT22;5304;48.604;2.096;2023-02-15T01:20:39;1.30;99.90
10512;DHT22;5304;48.604;2.096;2023-02-15T01:23:25;1.20;99.90
10512;DHT22;5304;48.604;2.096;2023-02-15T01:26:10;1.10;99.90
10512;DHT22;5304;48.604;2.096;2023-02-15T01:28:54;1.20;99.90
10512;DHT22;5304;48.604;2.096;2023-02-15T01:31:40;1.20;99.90
10512;DHT22;5304;48.604;2.096;2023-02-15T01:34:24;1.20;99.90
10512;DHT22;5304;48.604;2.096;2023-02-15T01:37:09;1.20;99.90
10512;DHT22;5304;48.604;2.096;2023-02-15T01:39:53;1.10;99.90
10512;DHT22;5304;48.604;2.096;2023-02-15T01:42:38;1.00;99.90
10512;DHT22;5304;48.604;2.096;2023-02-15T01:45:24;1.00;99.90
10512;DHT22;5304;48.604;2.096;2023-02-15T01:48:24;1.10;99.90
10512;DHT22;5304;48.604;2.096;2023-02-15T01:51:13;1.10;99.90
10512;DHT22;5304;48.604;2.096;2023-02-15T01:54:09;1.10;99.90
10512;DHT22;5304;48.604;2.096;2023-02-15T01:57:00;1.00;99.90
10512;DHT22;5304;48.604;2.096;2023-02-15T01:59:49;0.90;99.90
10512;DHT22;5304;48.604;2.096;2023-02-15T02:02:36;0.90;99.90
10512;DHT22;5304;48.604;2.096;2023-02-15T02:05:20;0.90;99.90
10512;DHT22;5304;48.604;2.096;2023-02-15T02:08:05;0.90;99.90
10512;DHT22;5304;48.604;2.096;2023-02-15T02:10:51;0.90;99.90
10512;DHT22;5304;48.604;2.096;2023-02-15T02:13:35;0.90;99.90
10512;DHT22;5304;48.604;2.096;2023-02-15T02:34:54;0.60;99.90
10512;DHT22;5304;48.604;2.096;2023-02-15T02:38:08;0.70;99.90
10512;DHT22;5304;48.604;2.096;2023-02-15T02:41:44;0.90;99.90
10512;DHT22;5304;48.604;2.096;2023-02-15T02:44:43;0.80;99.90
10512;DHT22;5304;48.604;2.096;2023-02-15T02:50:23;0.80;99.90
10512;DHT22;5304;48.604;2.096;2023-02-15T02:53:10;0.70;99.90
10512;DHT22;5304;48.604;2.096;2023-02-15T02:59:25;0.40;99.90
10512;DHT22;5304;48.604;2.096;2023-02-15T03:02:19;0.40;99.90
10512;DHT22;5304;48.604;2.096;2023-02-15T03:05:08;0.40;99.90
10512;DHT22;5304;48.604;2.096;2023-02-15T03:07:55;0.30;99.90
10512;DHT22;5304;48.604;2.096;2023-02-15T03:10:41;0.30;99.90
10512;DHT22;5304;48.604;2.096;2023-02-15T03:13:26;0.30;99.90
10512;DHT22;5304;48.604;2.096;2023-02-15T03:16:12;0.40;99.90
10512;DHT22;5304;48.604;2.096;2023-02-15T03:19:14;0.40;99.90
10512;DHT22;5304;48.604;2.096;2023-02-15T03:22:08;0.20;99.90
10512;DHT22;5304;48.604;2.096;2023-02-15T03:25:05;0.20;99.90
10512;DHT22;5304;48.604;2.096;2023-02-15T03:27:58;0.40;99.90
10512;DHT22;5304;48.604;2.096;2023-02-15T03:30:47;0.40;99.90
10512;DHT22;5304;48.604;2.096;2023-02-15T03:33:36;0.40;99.90
10512;DHT22;5304;48.604;2.096;2023-02-15T03:36:45;0.50;99.90
10512;DHT22;5304;48.604;2.096;2023-02-15T03:42:32;0.50;99.90
10512;DHT22;5304;48.604;2.096;2023-02-15T03:45:25;0.60;99.90
10512;DHT22;5304;48.604;2.096;2023-02-15T03:48:11;0.60;99.90
10512;DHT22;5304;48.604;2.096;2023-02-15T03:51:00;0.60;99.90
10512;DHT22;5304;48.604;2.096;2023-02-15T03:54:20;0.50;99.90
10512;DHT22;5304;48.604;2.096;2023-02-15T03:57:27;0.30;99.90
10512;DHT22;5304;48.604;2.096;2023-02-15T04:00:35;0.30;99.90
10512;DHT22;5304;48.604;2.096;2023-02-15T04:06:37;0.10;99.90
10512;DHT22;5304;48.604;2.096;2023-02-15T04:09:22;0.10;99.90
10512;DHT22;5304;48.604;2.096;2023-02-15T04:12:25;0.10;99.90
10512;DHT22;5304;48.604;2.096;2023-02-15T04:15:12;0.00;99.90
10512;DHT22;5304;48.604;2.096;2023-02-15T04:18:15;0.00;99.90
10512;DHT22;5304;48.604;2.096;2023-02-15T04:20:59;-0.10;99.90
10512;DHT22;5304;48.604;2.096;2023-02-15T04:24:03;-0.10;99.90
10512;DHT22;5304;48.604;2.096;2023-02-15T04:27:06;0.00;99.90
10512;DHT22;5304;48.604;2.096;2023-02-15T04:29:50;0.00;99.90
10512;DHT22;5304;48.604;2.096;2023-02-15T04:32:35;0.00;99.90
10512;DHT22;5304;48.604;2.096;2023-02-15T04:35:20;0.00;99.90
10512;DHT22;5304;48.604;2.096;2023-02-15T04:38:05;-0.10;99.90
10512;DHT22;5304;48.604;2.096;2023-02-15T04:40:50;-0.20;99.90
10512;DHT22;5304;48.604;2.096;2023-02-15T04:43:35;-0.20;99.90
10512;DHT22;5304;48.604;2.096;2023-02-15T04:46:20;-0.20;99.90
10512;DHT22;5304;48.604;2.096;2023-02-15T04:49:05;0.10;99.90
10512;DHT22;5304;48.604;2.096;2023-02-15T04:51:49;0.20;99.90
10512;DHT22;5304;48.604;2.096;2023-02-15T04:54:34;0.20;99.90
10512;DHT22;5304;48.604;2.096;2023-02-15T04:57:19;0.10;99.90
10512;DHT22;5304;48.604;2.096;2023-02-15T05:00:03;0.10;99.90
10512;DHT22;5304;48.604;2.096;2023-02-15T05:02:48;0.00;99.90
10512;DHT22;5304;48.604;2.096;2023-02-15T05:05:32;0.00;99.90
10512;DHT22;5304;48.604;2.096;2023-02-15T05:08:17;0.00;99.90
10512;DHT22;5304;48.604;2.096;2023-02-15T05:11:01;0.20;99.90
10512;DHT22;5304;48.604;2.096;2023-02-15T05:13:46;0.10;99.90
10512;DHT22;5304;48.604;2.096;2023-02-15T05:16:32;0.00;99.90
10512;DHT22;5304;48.604;2.096;2023-02-15T05:19:17;-0.20;99.90
10512;DHT22;5304;48.604;2.096;2023-02-15T05:22:01;-0.10;99.90
10512;DHT22;5304;48.604;2.096;2023-02-15T05:24:46;0.00;99.90
10512;DHT22;5304;48.604;2.096;2023-02-15T05:27:49;0.00;99.90
10512;DHT22;5304;48.604;2.096;2023-02-15T05:33:43;-0.10;99.90
10512;DHT22;5304;48.604;2.096;2023-02-15T05:36:28;0.00;99.90
10512;DHT22;5304;48.604;2.096;2023-02-15T05:39:13;0.00;99.90
10512;DHT22;5304;48.604;2.096;2023-02-15T05:42:00;-0.10;99.90
10512;DHT22;5304;48.604;2.096;2023-02-15T05:44:45;-0.10;99.90
10512;DHT22;5304;48.604;2.096;2023-02-15T05:47:30;-0.20;99.90
10512;DHT22;5304;48.604;2.096;2023-02-15T05:50:15;-0.20;99.90
10512;DHT22;5304;48.604;2.096;2023-02-15T05:52:59;-0.10;99.90
10512;DHT22;5304;48.604;2.096;2023-02-15T05:55:44;0.00;99.90
10512;DHT22;5304;48.604;2.096;2023-02-15T05:58:31;-0.20;99.90
10512;DHT22;5304;48.604;2.096;2023-02-15T06:01:18;-0.20;99.90
10512;DHT22;5304;48.604;2.096;2023-02-15T06:04:03;-0.20;99.90
10512;DHT22;5304;48.604;2.096;2023-02-15T06:06:47;-0.20;99.90
10512;DHT22;5304;48.604;2.096;2023-02-15T06:09:32;-0.30;99.90
10512;DHT22;5304;48.604;2.096;2023-02-15T06:12:16;-0.20;99.90
10512;DHT22;5304;48.604;2.096;2023-02-15T06:15:01;-0.20;99.90
10512;DHT22;5304;48.604;2.096;2023-02-15T06:17:45;-0.10;99.90
10512;DHT22;5304;48.604;2.096;2023-02-15T06:20:30;-0.20;99.90
10512;DHT22;5304;48.604;2.096;2023-02-15T06:23:17;-0.30;99.90
10512;DHT22;5304;48.604;2.096;2023-02-15T06:26:01;-0.40;99.90
10512;DHT22;5304;48.604;2.096;2023-02-15T06:28:46;-0.40;99.90
10512;DHT22;5304;48.604;2.096;2023-02-15T06:31:30;-0.50;99.90
10512;DHT22;5304;48.604;2.096;2023-02-15T06:34:15;-0.60;99.90
10512;DHT22;5304;48.604;2.096;2023-02-15T06:37:00;-0.70;99.90
10512;DHT22;5304;48.604;2.096;2023-02-15T06:39:44;-0.70;99.90
10512;DHT22;5304;48.604;2.096;2023-02-15T06:42:28;-0.50;99.90
10512;DHT22;5304;48.604;2.096;2023-02-15T06:45:13;-0.40;99.90
10512;DHT22;5304;48.604;2.096;2023-02-15T06:47:58;-0.40;99.90
10512;DHT22;5304;48.604;2.096;2023-02-15T06:50:42;-0.30;99.90
10512;DHT22;5304;48.604;2.096;2023-02-15T06:53:26;-0.40;99.90
10512;DHT22;5304;48.604;2.096;2023-02-15T06:56:11;-0.60;99.90
10512;DHT22;5304;48.604;2.096;2023-02-15T06:58:56;-0.60;99.90
10512;DHT22;5304;48.604;2.096;2023-02-15T07:01:41;-0.60;99.90
10512;DHT22;5304;48.604;2.096;2023-02-15T07:04:25;-0.60;99.90
10512;DHT22;5304;48.604;2.096;2023-02-15T07:07:11;-0.70;99.90
10512;DHT22;5304;48.604;2.096;2023-02-15T07:09:55;-0.70;99.90
10512;DHT22;5304;48.604;2.096;2023-02-15T07:12:41;-0.60;99.90
10512;DHT22;5304;48.604;2.096;2023-02-15T07:15:26;-0.30;99.90
10512;DHT22;5304;48.604;2.096;2023-02-15T07:18:11;-0.10;99.90
10512;DHT22;5304;48.604;2.096;2023-02-15T07:20:55;0.00;99.90
10512;DHT22;5304;48.604;2.096;2023-02-15T07:23:40;-0.10;99.90
10512;DHT22;5304;48.604;2.096;2023-02-15T07:26:25;-0.10;99.90
10512;DHT22;5304;48.604;2.096;2023-02-15T07:29:09;0.10;99.90
10512;DHT22;5304;48.604;2.096;2023-02-15T07:31:55;0.30;99.90
10512;DHT22;5304;48.604;2.096;2023-02-15T07:34:40;0.50;99.90
10512;DHT22;5304;48.604;2.096;2023-02-15T07:37:25;0.50;99.90
10512;DHT22;5304;48.604;2.096;2023-02-15T07:40:10;0.60;99.90
10512;DHT22;5304;48.604;2.096;2023-02-15T07:42:57;0.70;99.90
10512;DHT22;5304;48.604;2.096;2023-02-15T07:45:43;0.80;99.90
10512;DHT22;5304;48.604;2.096;2023-02-15T07:48:28;0.70;99.90
10512;DHT22;5304;48.604;2.096;2023-02-15T07:51:13;0.60;99.90
10512;DHT22;5304;48.604;2.096;2023-02-15T07:53:58;0.60;99.90
10512;DHT22;5304;48.604;2.096;2023-02-15T07:56:43;0.50;99.90
10512;DHT22;5304;48.604;2.096;2023-02-15T07:59:27;0.60;99.90
10512;DHT22;5304;48.604;2.096;2023-02-15T08:02:12;0.60;99.90
10512;DHT22;5304;48.604;2.096;2023-02-15T08:04:56;0.60;99.90
10512;DHT22;5304;48.604;2.096;2023-02-15T08:07:41;0.70;99.90
10512;DHT22;5304;48.604;2.096;2023-02-15T08:10:25;0.80;99.90
10512;DHT22;5304;48.604;2.096;2023-02-15T08:13:29;0.90;99.90
10512;DHT22;5304;48.604;2.096;2023-02-15T08:16:14;0.90;99.90
10512;DHT22;5304;48.604;2.096;2023-02-15T08:19:09;0.90;99.90
10512;DHT22;5304;48.604;2.096;2023-02-15T08:21:58;1.00;99.90
10512;DHT22;5304;48.604;2.096;2023-02-15T08:24:43;1.00;99.90
10512;DHT22;5304;48.604;2.096;2023-02-15T08:27:27;1.10;99.90
10512;DHT22;5304;48.604;2.096;2023-02-15T08:30:12;1.20;99.90
10512;DHT22;5304;48.604;2.096;2023-02-15T08:32:57;1.20;99.90
10512;DHT22;5304;48.604;2.096;2023-02-15T08:35:43;1.30;99.90
10512;DHT22;5304;48.604;2.096;2023-02-15T08:38:28;1.40;99.90
10512;DHT22;5304;48.604;2.096;2023-02-15T08:41:27;1.40;99.90
10512;DHT22;5304;48.604;2.096;2023-02-15T08:44:12;1.60;99.90
10512;DHT22;5304;48.604;2.096;2023-02-15T08:46:56;1.90;99.90
10512;DHT22;5304;48.604;2.096;2023-02-15T08:49:46;2.10;99.90
10512;DHT22;5304;48.604;2.096;2023-02-15T08:52:31;2.30;99.90
10512;DHT22;5304;48.604;2.096;2023-02-15T08:55:16;2.40;99.90
10512;DHT22;5304;48.604;2.096;2023-02-15T08:58:00;2.60;99.90
10512;DHT22;5304;48.604;2.096;2023-02-15T09:00:44;2.80;99.90
10512;DHT22;5304;48.604;2.096;2023-02-15T09:03:29;3.10;99.90
10512;DHT22;5304;48.604;2.096;2023-02-15T09:06:14;3.30;99.90
10512;DHT22;5304;48.604;2.096;2023-02-15T09:08:58;3.30;99.90
10512;DHT22;5304;48.604;2.096;2023-02-15T09:11:45;3.40;99.90
10512;DHT22;5304;48.604;2.096;2023-02-15T09:14:30;3.50;99.90
10512;DHT22;5304;48.604;2.096;2023-02-15T09:17:14;3.60;99.90
10512;DHT22;5304;48.604;2.096;2023-02-15T09:19:59;3.80;99.90
10512;DHT22;5304;48.604;2.096;2023-02-15T09:22:44;3.90;99.90
10512;DHT22;5304;48.604;2.096;2023-02-15T09:25:28;4.00;99.90
10512;DHT22;5304;48.604;2.096;2023-02-15T09:28:13;4.10;99.90
10512;DHT22;5304;48.604;2.096;2023-02-15T09:31:08;4.30;99.90
10512;DHT22;5304;48.604;2.096;2023-02-15T09:33:53;4.40;99.90
10512;DHT22;5304;48.604;2.096;2023-02-15T09:36:39;4.50;99.90
10512;DHT22;5304;48.604;2.096;2023-02-15T09:39:25;4.70;99.90
10512;DHT22;5304;48.604;2.096;2023-02-15T09:48:40;4.90;99.90
10512;DHT22;5304;48.604;2.096;2023-02-15T09:51:48;5.00;99.90
10512;DHT22;5304;48.604;2.096;2023-02-15T10:07:48;6.30;99.90
10512;DHT22;5304;48.604;2.096;2023-02-15T10:22:52;7.50;99.90
10512;DHT22;5304;48.604;2.096;2023-02-15T10:26:07;7.70;99.90
10512;DHT22;5304;48.604;2.096;2023-02-15T10:29:00;7.90;99.90
10512;DHT22;5304;48.604;2.096;2023-02-15T10:32:26;8.00;99.90
10512;DHT22;5304;48.604;2.096;2023-02-15T10:35:25;8.10;99.90
10512;DHT22;5304;48.604;2.096;2023-02-15T10:47:20;8.50;99.90
10512;DHT22;5304;48.604;2.096;2023-02-15T10:50:24;8.50;99.90
10512;DHT22;5304;48.604;2.096;2023-02-15T10:56:55;8.50;99.90
10512;DHT22;5304;48.604;2.096;2023-02-15T11:08:37;9.30;99.90
10512;DHT22;5304;48.604;2.096;2023-02-15T11:11:37;9.80;99.90
10512;DHT22;5304;48.604;2.096;2023-02-15T11:14:44;10.00;99.90
10512;DHT22;5304;48.604;2.096;2023-02-15T11:17:38;10.20;99.90
10512;DHT22;5304;48.604;2.096;2023-02-15T11:23:46;10.50;99.90
10512;DHT22;5304;48.604;2.096;2023-02-15T11:26:39;10.60;99.90
10512;DHT22;5304;48.604;2.096;2023-02-15T11:29:31;10.70;99.90
10512;DHT22;5304;48.604;2.096;2023-02-15T11:32:30;10.80;99.90
10512;DHT22;5304;48.604;2.096;2023-02-15T11:35:32;10.90;99.90
10512;DHT22;5304;48.604;2.096;2023-02-15T11:38:20;11.00;99.90
10512;DHT22;5304;48.604;2.096;2023-02-15T11:41:10;11.10;99.90
10512;DHT22;5304;48.604;2.096;2023-02-15T11:46:39;11.30;99.90
10512;DHT22;5304;48.604;2.096;2023-02-15T11:49:28;11.60;99.90
10512;DHT22;5304;48.604;2.096;2023-02-15T11:52:15;11.70;99.90
10512;DHT22;5304;48.604;2.096;2023-02-15T11:55:00;12.00;99.90
10512;DHT22;5304;48.604;2.096;2023-02-15T11:57:53;12.10;99.90
10512;DHT22;5304;48.604;2.096;2023-02-15T12:00:47;12.10;99.90
10512;DHT22;5304;48.604;2.096;2023-02-15T12:06:34;12.00;99.90
10512;DHT22;5304;48.604;2.096;2023-02-15T12:09:36;12.00;99.90
10512;DHT22;5304;48.604;2.096;2023-02-15T12:12:25;12.00;99.90
10512;DHT22;5304;48.604;2.096;2023-02-15T12:15:12;12.10;99.90
10512;DHT22;5304;48.604;2.096;2023-02-15T12:17:57;12.10;99.90
10512;DHT22;5304;48.604;2.096;2023-02-15T12:20:41;12.20;99.90
10512;DHT22;5304;48.604;2.096;2023-02-15T12:23:28;12.50;99.90
10512;DHT22;5304;48.604;2.096;2023-02-15T12:26:13;12.60;99.90
10512;DHT22;5304;48.604;2.096;2023-02-15T12:29:02;12.70;99.90
10512;DHT22;5304;48.604;2.096;2023-02-15T12:31:51;12.90;99.90
10512;DHT22;5304;48.604;2.096;2023-02-15T12:34:37;13.10;99.90
10512;DHT22;5304;48.604;2.096;2023-02-15T12:37:29;13.20;99.90
10512;DHT22;5304;48.604;2.096;2023-02-15T12:40:23;13.20;99.90
10512;DHT22;5304;48.604;2.096;2023-02-15T12:43:37;13.20;99.90
10512;DHT22;5304;48.604;2.096;2023-02-15T12:46:25;13.20;99.90
10512;DHT22;5304;48.604;2.096;2023-02-15T12:51:56;13.20;99.90
10512;DHT22;5304;48.604;2.096;2023-02-15T12:54:42;13.30;99.90
10512;DHT22;5304;48.604;2.096;2023-02-15T12:57:33;13.30;99.90
10512;DHT22;5304;48.604;2.096;2023-02-15T13:03:02;13.10;99.90
10512;DHT22;5304;48.604;2.096;2023-02-15T13:05:55;13.00;99.90
10512;DHT22;5304;48.604;2.096;2023-02-15T13:08:47;13.10;99.90
10512;DHT22;5304;48.604;2.096;2023-02-15T13:11:32;13.20;99.90
10512;DHT22;5304;48.604;2.096;2023-02-15T13:14:30;13.10;99.90
10512;DHT22;5304;48.604;2.096;2023-02-15T13:17:16;13.00;99.90
10512;DHT22;5304;48.604;2.096;2023-02-15T13:20:04;13.00;99.90
10512;DHT22;5304;48.604;2.096;2023-02-15T13:22:58;13.00;99.90
10512;DHT22;5304;48.604;2.096;2023-02-15T13:25:47;13.10;99.90
10512;DHT22;5304;48.604;2.096;2023-02-15T13:28:56;13.10;99.90
10512;DHT22;5304;48.604;2.096;2023-02-15T13:31:42;13.10;99.90
10512;DHT22;5304;48.604;2.096;2023-02-15T13:40:15;13.10;99.90
10512;DHT22;5304;48.604;2.096;2023-02-15T13:46:16;13.10;99.90
10512;DHT22;5304;48.604;2.096;2023-02-15T13:49:30;13.20;99.90
10512;DHT22;5304;48.604;2.096;2023-02-15T13:55:08;13.20;99.90
10512;DHT22;5304;48.604;2.096;2023-02-15T14:10:34;13.10;99.90
10512;DHT22;5304;48.604;2.096;2023-02-15T14:13:44;13.10;99.90
10512;DHT22;5304;48.604;2.096;2023-02-15T14:16:41;13.10;99.90
10512;DHT22;5304;48.604;2.096;2023-02-15T14:19:49;13.00;99.90
10512;DHT22;5304;48.604;2.096;2023-02-15T14:22:51;13.00;99.90
10512;DHT22;5304;48.604;2.096;2023-02-15T14:25:42;13.10;99.90
10512;DHT22;5304;48.604;2.096;2023-02-15T14:31:32;13.10;99.90
10512;DHT22;5304;48.604;2.096;2023-02-15T14:37:11;13.30;99.90
10512;DHT22;5304;48.604;2.096;2023-02-15T14:40:04;13.40;99.90
10512;DHT22;5304;48.604;2.096;2023-02-15T14:43:45;13.30;99.90
10512;DHT22;5304;48.604;2.096;2023-02-15T14:46:36;13.40;99.90
10512;DHT22;5304;48.604;2.096;2023-02-15T14:49:26;13.40;99.90
10512;DHT22;5304;48.604;2.096;2023-02-15T14:52:11;13.50;99.90
10512;DHT22;5304;48.604;2.096;2023-02-15T14:54:57;13.40;99.90
10512;DHT22;5304;48.604;2.096;2023-02-15T14:57:56;13.50;99.90
10512;DHT22;5304;48.604;2.096;2023-02-15T15:00:42;13.60;99.90
10512;DHT22;5304;48.604;2.096;2023-02-15T15:03:27;13.60;99.90
10512;DHT22;5304;48.604;2.096;2023-02-15T15:06:28;13.60;99.90
10512;DHT22;5304;48.604;2.096;2023-02-15T15:09:21;13.70;99.90
10512;DHT22;5304;48.604;2.096;2023-02-15T15:15:07;13.70;99.90
10512;DHT22;5304;48.604;2.096;2023-02-15T15:20:51;13.80;99.90
10512;DHT22;5304;48.604;2.096;2023-02-15T15:23:43;13.70;99.90
10512;DHT22;5304;48.604;2.096;2023-02-15T15:26:31;13.70;99.90
10512;DHT22;5304;48.604;2.096;2023-02-15T15:29:40;13.70;99.90
10512;DHT22;5304;48.604;2.096;2023-02-15T15:32:27;13.70;99.90
10512;DHT22;5304;48.604;2.096;2023-02-15T15:41:48;13.70;99.90
10512;DHT22;5304;48.604;2.096;2023-02-15T15:51:20;13.50;99.90
10512;DHT22;5304;48.604;2.096;2023-02-15T15:54:05;13.40;99.90
10512;DHT22;5304;48.604;2.096;2023-02-15T15:56:58;13.30;99.90
10512;DHT22;5304;48.604;2.096;2023-02-15T15:59:45;13.10;99.90
10512;DHT22;5304;48.604;2.096;2023-02-15T16:02:30;13.00;99.90
10512;DHT22;5304;48.604;2.096;2023-02-15T16:05:14;12.90;99.90
10512;DHT22;5304;48.604;2.096;2023-02-15T16:07:59;12.80;99.90
10512;DHT22;5304;48.604;2.096;2023-02-15T16:10:43;12.70;99.90
10512;DHT22;5304;48.604;2.096;2023-02-15T16:13:28;12.70;99.90
10512;DHT22;5304;48.604;2.096;2023-02-15T16:16:19;12.70;99.90
10512;DHT22;5304;48.604;2.096;2023-02-15T16:19:03;12.60;99.90
10512;DHT22;5304;48.604;2.096;2023-02-15T16:21:50;12.50;99.90
10512;DHT22;5304;48.604;2.096;2023-02-15T16:27:48;12.40;99.90
10512;DHT22;5304;48.604;2.096;2023-02-15T16:30:35;12.40;99.90
10512;DHT22;5304;48.604;2.096;2023-02-15T16:33:20;12.30;99.90
10512;DHT22;5304;48.604;2.096;2023-02-15T16:36:05;12.30;99.90
10512;DHT22;5304;48.604;2.096;2023-02-15T16:41:36;12.30;99.90
10512;DHT22;5304;48.604;2.096;2023-02-15T16:44:21;12.20;99.90
10512;DHT22;5304;48.604;2.096;2023-02-15T16:47:33;12.20;99.90
10512;DHT22;5304;48.604;2.096;2023-02-15T16:50:46;12.10;99.90
10512;DHT22;5304;48.604;2.096;2023-02-15T16:53:28;12.00;99.90
10512;DHT22;5304;48.604;2.096;2023-02-15T16:56:12;11.90;99.90
10512;DHT22;5304;48.604;2.096;2023-02-15T16:58:58;11.90;99.90
10512;DHT22;5304;48.604;2.096;2023-02-15T17:01:44;11.80;99.90
10512;DHT22;5304;48.604;2.096;2023-02-15T17:04:31;11.60;99.90
10512;DHT22;5304;48.604;2.096;2023-02-15T17:07:18;11.50;99.90
10512;DHT22;5304;48.604;2.096;2023-02-15T17:10:27;11.30;99.90
10512;DHT22;5304;48.604;2.096;2023-02-15T17:13:16;11.10;99.90
10512;DHT22;5304;48.604;2.096;2023-02-15T17:18:45;10.90;99.90
10512;DHT22;5304;48.604;2.096;2023-02-15T17:21:33;10.80;99.90
10512;DHT22;5304;48.604;2.096;2023-02-15T17:24:32;10.80;99.90
10512;DHT22;5304;48.604;2.096;2023-02-15T17:27:23;10.70;99.90
10512;DHT22;5304;48.604;2.096;2023-02-15T17:30:21;10.50;99.90
10512;DHT22;5304;48.604;2.096;2023-02-15T17:36:20;10.30;99.90
10512;DHT22;5304;48.604;2.096;2023-02-15T17:39:20;10.20;99.90
10512;DHT22;5304;48.604;2.096;2023-02-15T17:42:06;10.20;99.90
10512;DHT22;5304;48.604;2.096;2023-02-15T17:44:50;10.10;99.90
10512;DHT22;5304;48.604;2.096;2023-02-15T17:47:35;10.00;99.90
10512;DHT22;5304;48.604;2.096;2023-02-15T17:50:25;9.90;99.90
10512;DHT22;5304;48.604;2.096;2023-02-15T17:53:17;9.80;99.90
10512;DHT22;5304;48.604;2.096;2023-02-15T17:56:02;9.80;99.90
10512;DHT22;5304;48.604;2.096;2023-02-15T17:58:56;9.70;99.90
10512;DHT22;5304;48.604;2.096;2023-02-15T18:01:45;9.60;99.90
10512;DHT22;5304;48.604;2.096;2023-02-15T18:04:49;9.50;99.90
10512;DHT22;5304;48.604;2.096;2023-02-15T18:07:52;9.30;99.90
10512;DHT22;5304;48.604;2.096;2023-02-15T18:10:55;9.30;99.90
10512;DHT22;5304;48.604;2.096;2023-02-15T18:13:59;9.20;99.90
10512;DHT22;5304;48.604;2.096;2023-02-15T18:16:46;9.20;99.90
10512;DHT22;5304;48.604;2.096;2023-02-15T18:19:32;9.10;99.90
10512;DHT22;5304;48.604;2.096;2023-02-15T18:22:18;9.20;99.90
10512;DHT22;5304;48.604;2.096;2023-02-15T18:25:02;9.20;99.90
10512;DHT22;5304;48.604;2.096;2023-02-15T18:27:47;9.20;99.90
10512;DHT22;5304;48.604;2.096;2023-02-15T18:30:31;9.20;99.90
10512;DHT22;5304;48.604;2.096;2023-02-15T18:36:40;9.00;99.90
10512;DHT22;5304;48.604;2.096;2023-02-15T18:42:31;8.80;99.90
10512;DHT22;5304;48.604;2.096;2023-02-15T18:45:23;8.70;99.90
10512;DHT22;5304;48.604;2.096;2023-02-15T18:48:08;8.70;99.90
10512;DHT22;5304;48.604;2.096;2023-02-15T18:50:53;8.70;99.90
10512;DHT22;5304;48.604;2.096;2023-02-15T18:53:37;8.60;99.90
10512;DHT22;5304;48.604;2.096;2023-02-15T18:56:22;8.40;99.90
10512;DHT22;5304;48.604;2.096;2023-02-15T18:59:14;8.20;99.90
10512;DHT22;5304;48.604;2.096;2023-02-15T19:01:59;8.00;99.90
10512;DHT22;5304;48.604;2.096;2023-02-15T19:04:44;8.00;99.90
10512;DHT22;5304;48.604;2.096;2023-02-15T19:07:30;7.80;99.90
10512;DHT22;5304;48.604;2.096;2023-02-15T19:10:21;7.80;99.90
10512;DHT22;5304;48.604;2.096;2023-02-15T19:13:09;7.70;99.90
10512;DHT22;5304;48.604;2.096;2023-02-15T19:15:54;7.70;99.90
10512;DHT22;5304;48.604;2.096;2023-02-15T19:18:38;7.70;99.90
10512;DHT22;5304;48.604;2.096;2023-02-15T19:21:23;7.60;99.90
10512;DHT22;5304;48.604;2.096;2023-02-15T19:24:16;7.70;99.90
10512;DHT22;5304;48.604;2.096;2023-02-15T19:27:01;7.60;99.90
10512;DHT22;5304;48.604;2.096;2023-02-15T19:29:46;7.50;99.90
10512;DHT22;5304;48.604;2.096;2023-02-15T19:32:31;7.60;99.90
10512;DHT22;5304;48.604;2.096;2023-02-15T19:35:17;7.50;99.90
10512;DHT22;5304;48.604;2.096;2023-02-15T19:38:06;7.50;99.90
10512;DHT22;5304;48.604;2.096;2023-02-15T19:40:51;7.40;99.90
10512;DHT22;5304;48.604;2.096;2023-02-15T19:43:36;7.40;99.90
10512;DHT22;5304;48.604;2.096;2023-02-15T19:46:22;7.50;99.90
10512;DHT22;5304;48.604;2.096;2023-02-15T19:49:07;7.70;99.90
10512;DHT22;5304;48.604;2.096;2023-02-15T19:51:53;7.70;99.90
10512;DHT22;5304;48.604;2.096;2023-02-15T19:54:37;7.60;99.90
10512;DHT22;5304;48.604;2.096;2023-02-15T19:57:22;7.40;99.90
10512;DHT22;5304;48.604;2.096;2023-02-15T20:00:24;7.30;99.90
10512;DHT22;5304;48.604;2.096;2023-02-15T20:03:09;7.20;99.90
10512;DHT22;5304;48.604;2.096;2023-02-15T20:05:53;7.20;99.90
10512;DHT22;5304;48.604;2.096;2023-02-15T20:08:38;7.10;99.90
10512;DHT22;5304;48.604;2.096;2023-02-15T20:11:23;7.00;99.90
10512;DHT22;5304;48.604;2.096;2023-02-15T20:14:12;7.00;99.90
10512;DHT22;5304;48.604;2.096;2023-02-15T20:16:57;6.90;99.90
10512;DHT22;5304;48.604;2.096;2023-02-15T20:19:41;6.90;99.90
10512;DHT22;5304;48.604;2.096;2023-02-15T20:22:26;6.80;99.90
10512;DHT22;5304;48.604;2.096;2023-02-15T20:25:27;6.80;99.90
10512;DHT22;5304;48.604;2.096;2023-02-15T20:28:23;6.80;99.90
10512;DHT22;5304;48.604;2.096;2023-02-15T20:31:16;6.80;99.90
10512;DHT22;5304;48.604;2.096;2023-02-15T20:34:01;6.70;99.90
10512;DHT22;5304;48.604;2.096;2023-02-15T20:36:45;6.60;99.90
10512;DHT22;5304;48.604;2.096;2023-02-15T20:39:31;6.50;99.90
10512;DHT22;5304;48.604;2.096;2023-02-15T20:42:18;6.50;99.90
10512;DHT22;5304;48.604;2.096;2023-02-15T20:45:22;6.50;99.90
10512;DHT22;5304;48.604;2.096;2023-02-15T20:48:07;6.40;99.90
10512;DHT22;5304;48.604;2.096;2023-02-15T20:50:51;6.40;99.90
10512;DHT22;5304;48.604;2.096;2023-02-15T20:53:36;6.40;99.90
10512;DHT22;5304;48.604;2.096;2023-02-15T20:56:23;6.40;99.90
10512;DHT22;5304;48.604;2.096;2023-02-15T21:02:19;6.30;99.90
10512;DHT22;5304;48.604;2.096;2023-02-15T21:05:20;6.30;99.90
10512;DHT22;5304;48.604;2.096;2023-02-15T21:08:14;6.30;99.90